createdAt,value
2022-08-26T00:00:43.739Z,0.00
2022-08-26T00:01:44.812Z,0.00
2022-08-26T00:02:43.785Z,0.00
2022-08-26T00:03:43.829Z,0.00
2022-08-26T00:04:43.830Z,0.00
2022-08-26T00:05:43.856Z,0.00
2022-08-26T00:06:46.130Z,0.00
2022-08-26T00:07:43.900Z,0.00
2022-08-26T00:08:43.922Z,0.00
2022-08-26T00:09:47.370Z,0.00
2022-08-26T00:10:43.970Z,0.00
2022-08-26T00:11:43.992Z,0.00
2022-08-26T00:12:44.038Z,0.00
2022-08-26T00:13:47.906Z,0.00
2022-08-26T00:14:44.060Z,0.00
2022-08-26T00:15:44.085Z,0.00
2022-08-26T00:16:47.507Z,0.00
2022-08-26T00:17:44.129Z,0.00
2022-08-26T00:18:44.154Z,0.00
2022-08-26T00:19:44.188Z,0.00
2022-08-26T00:20:44.197Z,0.00
2022-08-26T00:21:44.221Z,0.00
2022-08-26T00:22:44.243Z,0.00
2022-08-26T00:23:44.268Z,0.00
2022-08-26T00:24:48.090Z,0.00
2022-08-26T00:25:44.314Z,0.00
2022-08-26T00:26:44.589Z,0.00
2022-08-26T00:27:44.359Z,0.00
2022-08-26T00:28:44.383Z,0.00
2022-08-26T00:29:44.405Z,0.00
2022-08-26T00:30:44.435Z,0.00
2022-08-26T00:31:45.305Z,0.00
2022-08-26T00:32:44.480Z,0.00
2022-08-26T00:33:44.500Z,0.00
2022-08-26T00:34:44.519Z,0.00
2022-08-26T00:35:45.348Z,0.00
2022-08-26T00:36:44.564Z,0.00
2022-08-26T00:37:44.588Z,0.00
2022-08-26T00:38:44.611Z,0.00
2022-08-26T00:39:44.636Z,0.00
2022-08-26T00:40:44.654Z,0.00
2022-08-26T00:41:44.678Z,0.00
2022-08-26T00:42:45.935Z,0.00
2022-08-26T00:43:47.427Z,0.00
2022-08-26T00:44:44.747Z,0.00
2022-08-26T00:45:44.820Z,0.00
2022-08-26T00:46:46.572Z,0.00
2022-08-26T00:47:44.814Z,0.00
2022-08-26T00:48:44.838Z,0.00
2022-08-26T00:49:44.861Z,0.00
2022-08-26T00:50:44.885Z,0.00
2022-08-26T00:51:44.903Z,0.00
2022-08-26T00:52:44.929Z,0.00
2022-08-26T00:53:44.951Z,0.00
2022-08-26T00:54:44.974Z,0.00
2022-08-26T00:55:44.997Z,0.00
2022-08-26T00:56:45.019Z,0.00
2022-08-26T00:57:45.041Z,0.00
2022-08-26T00:58:45.068Z,0.00
2022-08-26T00:59:45.089Z,0.00
2022-08-26T01:00:45.314Z,0.00
2022-08-26T01:01:46.069Z,0.00
2022-08-26T01:02:46.833Z,0.00
2022-08-26T01:03:45.178Z,0.00
2022-08-26T01:04:45.202Z,0.00
2022-08-26T01:05:45.224Z,0.00
2022-08-26T01:06:45.249Z,0.00
2022-08-26T01:07:45.270Z,0.00
2022-08-26T01:08:45.293Z,0.00
2022-08-26T01:09:45.317Z,0.00
2022-08-26T01:10:45.339Z,0.00
2022-08-26T01:11:45.362Z,0.00
2022-08-26T01:12:45.383Z,0.00
2022-08-26T01:13:45.407Z,0.00
2022-08-26T01:14:46.369Z,0.00
2022-08-26T01:15:45.451Z,0.00
2022-08-26T01:16:45.546Z,0.00
2022-08-26T01:17:45.497Z,0.00
2022-08-26T01:18:45.521Z,0.00
2022-08-26T01:19:45.545Z,0.00
2022-08-26T01:20:45.566Z,0.00
2022-08-26T01:21:45.590Z,0.00
2022-08-26T01:22:45.611Z,0.00
2022-08-26T01:23:45.636Z,0.00
2022-08-26T01:24:45.660Z,0.00
2022-08-26T01:25:45.685Z,0.00
2022-08-26T01:26:45.707Z,0.00
2022-08-26T01:27:45.726Z,0.00
2022-08-26T01:28:45.751Z,0.00
2022-08-26T01:29:45.775Z,0.00
2022-08-26T01:30:45.795Z,0.00
2022-08-26T01:31:45.889Z,0.00
2022-08-26T01:32:45.842Z,0.00
2022-08-26T01:33:45.864Z,0.00
2022-08-26T01:34:45.892Z,0.00
2022-08-26T01:35:45.916Z,0.00
2022-08-26T01:36:49.296Z,0.00
2022-08-26T01:37:45.963Z,0.00
2022-08-26T01:38:45.980Z,0.00
2022-08-26T01:39:46.004Z,0.00
2022-08-26T01:40:46.027Z,0.00
2022-08-26T01:41:46.048Z,0.00
2022-08-26T01:42:46.072Z,0.00
2022-08-26T01:43:46.093Z,0.00
2022-08-26T01:44:46.126Z,0.00
2022-08-26T01:45:46.170Z,0.00
2022-08-26T01:46:46.170Z,0.00
2022-08-26T01:47:46.187Z,0.00
2022-08-26T01:48:46.213Z,0.00
2022-08-26T01:49:46.237Z,0.00
2022-08-26T01:50:46.259Z,0.00
2022-08-26T01:51:46.278Z,0.00
2022-08-26T01:52:46.597Z,0.00
2022-08-26T01:53:46.327Z,0.00
2022-08-26T01:54:50.492Z,0.00
2022-08-26T01:55:46.372Z,0.00
2022-08-26T01:56:46.396Z,0.00
2022-08-26T01:57:46.417Z,0.00
2022-08-26T01:58:46.442Z,0.00
2022-08-26T01:59:46.465Z,0.00
2022-08-26T02:00:46.574Z,0.00
2022-08-26T02:01:46.510Z,0.00
2022-08-26T02:02:46.534Z,0.00
2022-08-26T02:03:46.556Z,0.00
2022-08-26T02:04:46.630Z,0.00
2022-08-26T02:05:46.602Z,0.00
2022-08-26T02:06:46.625Z,0.00
2022-08-26T02:07:46.647Z,0.00
2022-08-26T02:08:46.672Z,0.00
2022-08-26T02:09:46.694Z,0.00
2022-08-26T02:10:46.717Z,0.00
2022-08-26T02:11:46.739Z,0.00
2022-08-26T02:12:46.762Z,0.00
2022-08-26T02:13:46.786Z,0.00
2022-08-26T02:14:46.810Z,0.00
2022-08-26T02:15:46.829Z,0.00
2022-08-26T02:16:46.927Z,0.00
2022-08-26T02:17:46.879Z,0.00
2022-08-26T02:18:47.067Z,0.00
2022-08-26T02:19:46.922Z,0.00
2022-08-26T02:20:46.943Z,0.00
2022-08-26T02:21:50.976Z,0.00
2022-08-26T02:22:46.991Z,0.00
2022-08-26T02:23:47.012Z,0.00
2022-08-26T02:24:47.035Z,0.00
2022-08-26T02:25:47.058Z,0.00
2022-08-26T02:26:47.082Z,0.00
2022-08-26T02:27:47.104Z,0.00
2022-08-26T02:28:47.127Z,0.00
2022-08-26T02:29:47.151Z,0.00
2022-08-26T02:30:47.174Z,0.00
2022-08-26T02:31:47.242Z,0.00
2022-08-26T02:32:47.217Z,0.00
2022-08-26T02:33:47.246Z,0.00
2022-08-26T02:34:47.263Z,0.00
2022-08-26T02:35:47.285Z,0.00
2022-08-26T02:36:47.310Z,0.00
2022-08-26T02:37:47.332Z,0.00
2022-08-26T02:38:47.354Z,0.00
2022-08-26T02:39:48.099Z,0.00
2022-08-26T02:40:47.400Z,0.00
2022-08-26T02:41:47.420Z,0.00
2022-08-26T02:42:47.448Z,0.00
2022-08-26T02:43:47.466Z,0.00
2022-08-26T02:44:47.488Z,0.00
2022-08-26T02:45:47.514Z,0.00
2022-08-26T02:46:47.569Z,0.00
2022-08-26T02:47:47.558Z,0.00
2022-08-26T02:48:47.578Z,0.00
2022-08-26T02:49:47.612Z,0.00
2022-08-26T02:50:47.628Z,0.00
2022-08-26T02:51:47.647Z,0.00
2022-08-26T02:52:47.668Z,0.00
2022-08-26T02:53:47.694Z,0.00
2022-08-26T02:54:47.714Z,0.00
2022-08-26T02:55:47.737Z,0.00
2022-08-26T02:56:47.759Z,0.00
2022-08-26T02:57:47.782Z,0.00
2022-08-26T02:58:47.805Z,0.00
2022-08-26T02:59:47.826Z,0.00
2022-08-26T03:00:53.531Z,0.00
2022-08-26T03:01:47.917Z,0.00
2022-08-26T03:02:47.895Z,0.00
2022-08-26T03:03:47.929Z,0.00
2022-08-26T03:04:57.394Z,0.00
2022-08-26T03:05:47.961Z,0.00
2022-08-26T03:06:52.852Z,0.00
2022-08-26T03:07:48.006Z,0.00
2022-08-26T03:08:48.027Z,0.00
2022-08-26T03:09:48.052Z,0.00
2022-08-26T03:10:48.170Z,0.00
2022-08-26T03:11:48.096Z,0.00
2022-08-26T03:12:48.237Z,0.00
2022-08-26T03:13:48.140Z,0.00
2022-08-26T03:14:48.165Z,0.00
2022-08-26T03:15:48.241Z,0.00
2022-08-26T03:16:48.420Z,0.00
2022-08-26T03:17:48.228Z,0.00
2022-08-26T03:18:52.465Z,0.00
2022-08-26T03:19:51.716Z,0.00
2022-08-26T03:20:48.297Z,0.00
2022-08-26T03:21:48.317Z,0.00
2022-08-26T03:22:48.773Z,0.00
2022-08-26T03:23:48.362Z,0.00
2022-08-26T03:24:48.386Z,0.00
2022-08-26T03:25:48.409Z,0.00
2022-08-26T03:26:52.194Z,0.00
2022-08-26T03:27:48.455Z,0.00
2022-08-26T03:28:48.475Z,0.00
2022-08-26T03:29:49.589Z,0.00
2022-08-26T03:30:48.522Z,0.00
2022-08-26T03:31:48.575Z,0.00
2022-08-26T03:32:48.565Z,0.00
2022-08-26T03:33:48.590Z,0.00
2022-08-26T03:34:48.609Z,0.00
2022-08-26T03:35:50.468Z,0.00
2022-08-26T03:36:48.653Z,0.00
2022-08-26T03:37:48.676Z,0.00
2022-08-26T03:38:48.698Z,0.00
2022-08-26T03:39:48.784Z,0.00
2022-08-26T03:40:48.742Z,0.00
2022-08-26T03:41:48.764Z,0.00
2022-08-26T03:42:48.788Z,0.00
2022-08-26T03:43:48.809Z,0.00
2022-08-26T03:44:48.831Z,0.00
2022-08-26T03:45:48.853Z,0.00
2022-08-26T03:46:48.930Z,0.00
2022-08-26T03:47:48.898Z,0.00
2022-08-26T03:48:49.375Z,0.00
2022-08-26T03:49:48.942Z,0.00
2022-08-26T03:50:48.967Z,0.00
2022-08-26T03:51:48.986Z,0.00
2022-08-26T03:52:49.007Z,0.00
2022-08-26T03:53:49.031Z,0.00
2022-08-26T03:54:49.053Z,0.00
2022-08-26T03:55:49.074Z,0.00
2022-08-26T03:56:49.098Z,0.00
2022-08-26T03:57:49.120Z,0.00
2022-08-26T03:58:49.143Z,0.00
2022-08-26T03:59:49.165Z,0.00
2022-08-26T04:00:49.187Z,5.63
2022-08-26T04:01:49.236Z,5.63
2022-08-26T04:02:49.284Z,5.63
2022-08-26T04:03:49.251Z,5.63
2022-08-26T04:04:49.275Z,5.63
2022-08-26T04:05:49.297Z,5.63
2022-08-26T04:06:49.318Z,5.63
2022-08-26T04:07:49.339Z,5.63
2022-08-26T04:08:49.364Z,11.25
2022-08-26T04:09:49.387Z,11.25
2022-08-26T04:10:49.407Z,11.25
2022-08-26T04:11:50.733Z,11.25
2022-08-26T04:12:49.451Z,11.25
2022-08-26T04:13:49.474Z,11.25
2022-08-26T04:14:49.498Z,16.88
2022-08-26T04:15:49.559Z,16.88
2022-08-26T04:16:49.542Z,16.88
2022-08-26T04:17:49.563Z,16.88
2022-08-26T04:18:49.585Z,22.50
2022-08-26T04:19:49.609Z,22.50
2022-08-26T04:20:49.634Z,22.50
2022-08-26T04:21:49.651Z,22.50
2022-08-26T04:22:49.672Z,28.13
2022-08-26T04:23:49.695Z,28.13
2022-08-26T04:24:49.718Z,28.13
2022-08-26T04:25:49.739Z,28.13
2022-08-26T04:26:49.764Z,33.75
2022-08-26T04:27:49.791Z,33.75
2022-08-26T04:28:49.826Z,33.75
2022-08-26T04:29:52.440Z,39.38
2022-08-26T04:30:49.860Z,39.38
2022-08-26T04:31:49.890Z,39.38
2022-08-26T04:32:49.895Z,39.38
2022-08-26T04:33:50.000Z,45.00
2022-08-26T04:34:49.939Z,45.00
2022-08-26T04:35:49.962Z,45.00
2022-08-26T04:36:49.984Z,50.63
2022-08-26T04:37:50.006Z,50.63
2022-08-26T04:38:50.029Z,50.63
2022-08-26T04:39:50.090Z,56.25
2022-08-26T04:40:50.074Z,56.25
2022-08-26T04:41:50.094Z,56.25
2022-08-26T04:42:50.119Z,56.25
2022-08-26T04:43:50.139Z,61.88
2022-08-26T04:44:50.162Z,61.88
2022-08-26T04:45:50.183Z,61.88
2022-08-26T04:46:50.227Z,67.50
2022-08-26T04:47:50.228Z,67.50
2022-08-26T04:48:50.251Z,67.50
2022-08-26T04:49:50.273Z,73.13
2022-08-26T04:50:50.294Z,73.13
2022-08-26T04:51:50.318Z,73.13
2022-08-26T04:52:50.338Z,73.13
2022-08-26T04:53:50.362Z,78.75
2022-08-26T04:54:50.384Z,78.75
2022-08-26T04:55:52.373Z,84.38
2022-08-26T04:56:50.428Z,84.38
2022-08-26T04:57:50.451Z,84.38
2022-08-26T04:58:50.474Z,90.00
2022-08-26T04:59:50.495Z,95.63
2022-08-26T05:00:50.518Z,101.25
2022-08-26T05:01:50.557Z,95.63
2022-08-26T05:02:51.581Z,101.25
2022-08-26T05:03:50.639Z,101.25
2022-08-26T05:04:51.836Z,106.88
2022-08-26T05:05:50.629Z,106.88
2022-08-26T05:06:50.660Z,112.50
2022-08-26T05:07:50.674Z,112.50
2022-08-26T05:08:50.698Z,112.50
2022-08-26T05:09:50.722Z,118.13
2022-08-26T05:10:50.745Z,118.13
2022-08-26T05:11:52.042Z,118.13
2022-08-26T05:12:50.789Z,118.13
2022-08-26T05:13:50.810Z,118.13
2022-08-26T05:14:50.833Z,123.75
2022-08-26T05:15:50.888Z,129.38
2022-08-26T05:16:50.878Z,123.75
2022-08-26T05:17:50.901Z,123.75
2022-08-26T05:18:50.923Z,129.38
2022-08-26T05:19:50.946Z,129.38
2022-08-26T05:20:50.969Z,135.00
2022-08-26T05:21:50.994Z,135.00
2022-08-26T05:22:51.013Z,135.00
2022-08-26T05:23:51.038Z,140.63
2022-08-26T05:24:51.067Z,140.63
2022-08-26T05:25:52.768Z,140.63
2022-08-26T05:26:51.127Z,140.63
2022-08-26T05:27:51.124Z,146.25
2022-08-26T05:28:51.148Z,146.25
2022-08-26T05:29:54.465Z,146.25
2022-08-26T05:30:51.251Z,146.25
2022-08-26T05:31:51.218Z,151.88
2022-08-26T05:32:54.841Z,151.88
2022-08-26T05:33:51.262Z,157.50
2022-08-26T05:34:51.287Z,157.50
2022-08-26T05:35:51.306Z,157.50
2022-08-26T05:36:51.331Z,163.13
2022-08-26T05:37:51.356Z,163.13
2022-08-26T05:38:51.378Z,168.75
2022-08-26T05:39:51.536Z,174.38
2022-08-26T05:40:52.563Z,180.00
2022-08-26T05:41:51.446Z,185.63
2022-08-26T05:42:51.469Z,191.25
2022-08-26T05:43:51.491Z,185.63
2022-08-26T05:44:53.736Z,185.63
2022-08-26T05:45:51.543Z,185.63
2022-08-26T05:46:51.646Z,185.63
2022-08-26T05:47:51.582Z,180.00
2022-08-26T05:48:51.607Z,191.25
2022-08-26T05:49:51.826Z,202.50
2022-08-26T05:50:51.653Z,219.38
2022-08-26T05:51:51.675Z,236.25
2022-08-26T05:52:51.698Z,241.88
2022-08-26T05:53:54.911Z,236.25
2022-08-26T05:54:51.772Z,230.63
2022-08-26T05:55:51.771Z,219.38
2022-08-26T05:56:51.800Z,213.75
2022-08-26T05:57:51.824Z,213.75
2022-08-26T05:58:51.838Z,213.75
2022-08-26T05:59:51.868Z,213.75
2022-08-26T06:00:51.883Z,219.38
2022-08-26T06:01:51.965Z,225.00
2022-08-26T06:02:51.975Z,236.25
2022-08-26T06:03:51.954Z,236.25
2022-08-26T06:04:51.976Z,236.25
2022-08-26T06:05:52.000Z,230.63
2022-08-26T06:06:52.026Z,230.63
2022-08-26T06:07:52.052Z,236.25
2022-08-26T06:08:52.070Z,241.88
2022-08-26T06:09:52.094Z,247.50
2022-08-26T06:10:52.118Z,253.13
2022-08-26T06:11:52.142Z,258.75
2022-08-26T06:12:52.163Z,264.38
2022-08-26T06:13:52.189Z,270.00
2022-08-26T06:14:52.216Z,275.63
2022-08-26T06:15:52.263Z,264.38
2022-08-26T06:16:52.259Z,258.75
2022-08-26T06:17:52.284Z,270.00
2022-08-26T06:18:52.306Z,264.38
2022-08-26T06:19:52.329Z,264.38
2022-08-26T06:20:57.354Z,270.00
2022-08-26T06:21:54.675Z,270.00
2022-08-26T06:22:52.399Z,270.00
2022-08-26T06:23:52.423Z,286.88
2022-08-26T06:24:52.445Z,303.75
2022-08-26T06:25:52.471Z,303.75
2022-08-26T06:26:52.494Z,298.13
2022-08-26T06:27:52.518Z,303.75
2022-08-26T06:28:52.541Z,309.38
2022-08-26T06:29:52.566Z,315.00
2022-08-26T06:30:52.600Z,343.13
2022-08-26T06:31:52.614Z,382.50
2022-08-26T06:32:52.637Z,382.50
2022-08-26T06:33:52.664Z,376.88
2022-08-26T06:34:52.687Z,427.50
2022-08-26T06:35:52.711Z,523.13
2022-08-26T06:36:53.216Z,562.50
2022-08-26T06:37:52.759Z,573.75
2022-08-26T06:38:52.782Z,579.38
2022-08-26T06:39:52.821Z,590.63
2022-08-26T06:40:52.830Z,590.63
2022-08-26T06:41:52.856Z,596.25
2022-08-26T06:42:52.880Z,613.13
2022-08-26T06:43:52.904Z,613.13
2022-08-26T06:44:52.927Z,624.38
2022-08-26T06:45:52.970Z,630.00
2022-08-26T06:46:52.979Z,630.00
2022-08-26T06:47:53.004Z,624.38
2022-08-26T06:48:53.030Z,635.63
2022-08-26T06:49:53.056Z,635.63
2022-08-26T06:50:53.083Z,652.50
2022-08-26T06:51:53.103Z,652.50
2022-08-26T06:52:53.131Z,658.13
2022-08-26T06:53:53.158Z,663.75
2022-08-26T06:54:53.184Z,663.75
2022-08-26T06:55:53.210Z,669.38
2022-08-26T06:56:53.236Z,680.63
2022-08-26T06:57:53.260Z,703.13
2022-08-26T06:58:53.290Z,714.38
2022-08-26T06:59:53.311Z,697.50
2022-08-26T07:00:53.339Z,691.88
2022-08-26T07:01:53.657Z,714.38
2022-08-26T07:02:53.405Z,731.25
2022-08-26T07:03:53.417Z,742.50
2022-08-26T07:04:53.443Z,753.75
2022-08-26T07:05:53.587Z,748.13
2022-08-26T07:06:53.812Z,753.75
2022-08-26T07:07:53.524Z,770.63
2022-08-26T07:08:53.550Z,787.50
2022-08-26T07:09:53.578Z,781.88
2022-08-26T07:10:53.606Z,781.88
2022-08-26T07:11:53.633Z,810.00
2022-08-26T07:12:53.658Z,815.63
2022-08-26T07:13:53.699Z,821.25
2022-08-26T07:14:53.711Z,810.00
2022-08-26T07:15:53.742Z,821.25
2022-08-26T07:16:53.766Z,838.13
2022-08-26T07:17:53.792Z,843.75
2022-08-26T07:18:53.820Z,866.25
2022-08-26T07:19:53.846Z,871.88
2022-08-26T07:20:53.875Z,877.50
2022-08-26T07:21:53.903Z,832.50
2022-08-26T07:22:53.930Z,855.00
2022-08-26T07:23:57.491Z,900.00
2022-08-26T07:24:53.988Z,905.63
2022-08-26T07:25:54.015Z,900.00
2022-08-26T07:26:54.041Z,905.63
2022-08-26T07:27:54.541Z,905.63
2022-08-26T07:28:54.096Z,911.25
2022-08-26T07:29:54.126Z,916.88
2022-08-26T07:30:54.188Z,933.75
2022-08-26T07:31:54.177Z,945.00
2022-08-26T07:32:54.209Z,956.25
2022-08-26T07:33:54.238Z,956.25
2022-08-26T07:34:54.266Z,961.88
2022-08-26T07:35:54.295Z,967.50
2022-08-26T07:36:55.302Z,973.13
2022-08-26T07:37:57.048Z,984.38
2022-08-26T07:38:54.380Z,984.38
2022-08-26T07:39:54.435Z,978.75
2022-08-26T07:40:54.436Z,984.38
2022-08-26T07:41:54.466Z,995.63
2022-08-26T07:42:54.496Z,1006.88
2022-08-26T07:43:54.525Z,1018.13
2022-08-26T07:44:54.557Z,1040.63
2022-08-26T07:45:54.580Z,1051.88
2022-08-26T07:46:54.612Z,1063.13
2022-08-26T07:47:54.639Z,1074.38
2022-08-26T07:48:54.669Z,1018.13
2022-08-26T07:49:54.703Z,950.63
2022-08-26T07:50:54.728Z,990.00
2022-08-26T07:51:54.756Z,1096.88
2022-08-26T07:52:54.788Z,1164.38
2022-08-26T07:53:54.812Z,748.13
2022-08-26T07:54:54.845Z,1029.38
2022-08-26T07:55:54.872Z,928.13
2022-08-26T07:56:55.921Z,1085.63
2022-08-26T07:57:54.932Z,759.38
2022-08-26T07:58:54.964Z,1035.00
2022-08-26T07:59:55.309Z,838.13
2022-08-26T08:00:55.020Z,466.88
2022-08-26T08:01:55.080Z,393.75
2022-08-26T08:02:55.081Z,416.25
2022-08-26T08:03:55.112Z,416.25
2022-08-26T08:04:55.193Z,421.88
2022-08-26T08:05:55.167Z,405.00
2022-08-26T08:06:55.195Z,416.25
2022-08-26T08:08:17.341Z,393.75
2022-08-26T08:08:55.263Z,399.38
2022-08-26T08:09:55.284Z,427.50
2022-08-26T08:10:55.313Z,433.13
2022-08-26T08:11:55.340Z,438.75
2022-08-26T08:12:55.370Z,450.00
2022-08-26T08:13:56.607Z,455.63
2022-08-26T08:14:55.432Z,478.13
2022-08-26T08:15:55.456Z,483.75
2022-08-26T08:16:55.608Z,483.75
2022-08-26T08:17:58.857Z,483.75
2022-08-26T08:18:55.541Z,472.50
2022-08-26T08:19:55.570Z,472.50
2022-08-26T08:21:10.846Z,466.88
2022-08-26T08:21:55.625Z,466.88
2022-08-26T08:22:55.665Z,472.50
2022-08-26T08:23:55.685Z,483.75
2022-08-26T08:24:55.733Z,500.63
2022-08-26T08:25:55.739Z,523.13
2022-08-26T08:26:56.142Z,528.75
2022-08-26T08:27:55.794Z,540.00
2022-08-26T08:28:55.830Z,540.00
2022-08-26T08:29:55.854Z,528.75
2022-08-26T08:30:55.929Z,511.88
2022-08-26T08:31:58.496Z,489.38
2022-08-26T08:32:55.935Z,466.88
2022-08-26T08:33:55.961Z,461.25
2022-08-26T08:34:55.990Z,455.63
2022-08-26T08:35:56.020Z,472.50
2022-08-26T08:36:56.048Z,483.75
2022-08-26T08:37:56.073Z,495.00
2022-08-26T08:38:56.102Z,511.88
2022-08-26T08:39:56.173Z,528.75
2022-08-26T08:40:56.157Z,551.25
2022-08-26T08:41:56.185Z,573.75
2022-08-26T08:42:56.230Z,596.25
2022-08-26T08:43:56.240Z,613.13
2022-08-26T08:44:56.270Z,618.75
2022-08-26T08:45:56.336Z,607.50
2022-08-26T08:46:56.326Z,596.25
2022-08-26T08:47:56.354Z,585.00
2022-08-26T08:48:56.380Z,585.00
2022-08-26T08:49:56.408Z,585.00
2022-08-26T08:50:56.445Z,590.63
2022-08-26T08:51:56.475Z,601.88
2022-08-26T08:52:56.491Z,630.00
2022-08-26T08:53:56.520Z,646.88
2022-08-26T08:54:56.548Z,675.00
2022-08-26T08:55:56.574Z,686.25
2022-08-26T08:56:56.603Z,691.88
2022-08-26T08:57:56.632Z,686.25
2022-08-26T08:58:56.960Z,680.63
2022-08-26T08:59:56.687Z,675.00
2022-08-26T09:00:56.755Z,663.75
2022-08-26T09:01:56.746Z,663.75
2022-08-26T09:02:56.769Z,652.50
2022-08-26T09:03:56.798Z,646.88
2022-08-26T09:04:57.499Z,658.13
2022-08-26T09:05:56.854Z,669.38
2022-08-26T09:07:56.912Z,725.63
2022-08-26T09:08:56.941Z,753.75
2022-08-26T09:09:56.968Z,770.63
2022-08-26T09:10:57.000Z,781.88
2022-08-26T09:11:57.025Z,793.13
2022-08-26T09:12:57.053Z,793.13
2022-08-26T09:13:57.081Z,815.63
2022-08-26T09:14:57.110Z,804.38
2022-08-26T09:15:57.141Z,781.88
2022-08-26T09:16:57.270Z,770.63
2022-08-26T09:17:57.197Z,776.25
2022-08-26T09:18:57.225Z,793.13
2022-08-26T09:19:57.254Z,821.25
2022-08-26T09:20:57.281Z,860.63
2022-08-26T09:21:57.311Z,900.00
2022-08-26T09:22:57.339Z,916.88
2022-08-26T09:23:57.368Z,928.13
2022-08-26T09:24:57.398Z,945.00
2022-08-26T09:25:57.443Z,961.88
2022-08-26T09:26:57.459Z,984.38
2022-08-26T09:27:57.484Z,990.00
2022-08-26T09:28:57.513Z,1006.88
2022-08-26T09:29:57.545Z,1012.50
2022-08-26T09:30:57.650Z,1023.75
2022-08-26T09:31:57.608Z,1018.13
2022-08-26T09:32:57.632Z,1012.50
2022-08-26T09:33:57.665Z,1001.25
2022-08-26T09:34:57.691Z,1006.88
2022-08-26T09:35:57.717Z,1023.75
2022-08-26T09:36:57.747Z,1040.63
2022-08-26T09:37:57.782Z,1046.25
2022-08-26T09:38:57.805Z,1018.13
2022-08-26T09:39:57.878Z,995.63
2022-08-26T09:40:59.115Z,1029.38
2022-08-26T09:41:57.895Z,1023.75
2022-08-26T09:42:57.925Z,1018.13
2022-08-26T09:43:57.955Z,1029.38
2022-08-26T09:44:57.984Z,1018.13
2022-08-26T09:45:59.674Z,1023.75
2022-08-26T09:46:58.076Z,1012.50
2022-08-26T09:48:01.312Z,995.63
2022-08-26T09:48:58.103Z,978.75
2022-08-26T09:49:58.134Z,933.75
2022-08-26T09:50:58.164Z,900.00
2022-08-26T09:51:58.195Z,900.00
2022-08-26T09:52:58.224Z,894.38
2022-08-26T09:53:58.254Z,894.38
2022-08-26T09:54:58.283Z,877.50
2022-08-26T09:55:58.314Z,826.88
2022-08-26T09:56:58.345Z,759.38
2022-08-26T09:58:02.247Z,691.88
2022-08-26T09:58:58.406Z,641.25
2022-08-26T09:59:58.437Z,652.50
2022-08-26T10:00:58.531Z,663.75
2022-08-26T10:01:58.586Z,686.25
2022-08-26T10:02:58.534Z,725.63
2022-08-26T10:03:58.599Z,753.75
2022-08-26T10:04:58.587Z,753.75
2022-08-26T10:05:58.617Z,753.75
2022-08-26T10:06:58.654Z,759.38
2022-08-26T10:07:58.678Z,736.88
2022-08-26T10:08:58.707Z,731.25
2022-08-26T10:09:58.739Z,731.25
2022-08-26T10:10:58.769Z,736.88
2022-08-26T10:11:58.799Z,736.88
2022-08-26T10:12:58.828Z,731.25
2022-08-26T10:13:58.860Z,720.00
2022-08-26T10:14:58.888Z,714.38
2022-08-26T10:15:58.918Z,714.38
2022-08-26T10:16:58.980Z,765.00
2022-08-26T10:17:58.986Z,641.25
2022-08-26T10:19:00.271Z,658.13
2022-08-26T10:19:59.038Z,1541.25
2022-08-26T10:20:59.069Z,613.13
2022-08-26T10:21:59.099Z,596.25
2022-08-26T10:22:59.128Z,866.25
2022-08-26T10:23:59.160Z,1316.25
2022-08-26T10:24:59.190Z,1800.00
2022-08-26T10:25:59.351Z,1760.63
2022-08-26T10:26:59.250Z,1462.50
2022-08-26T10:27:59.434Z,1186.88
2022-08-26T10:28:59.313Z,1293.75
2022-08-26T10:29:59.339Z,1693.13
2022-08-26T10:30:59.372Z,1715.63
2022-08-26T10:32:02.672Z,1248.75
2022-08-26T10:32:59.431Z,883.13
2022-08-26T10:34:00.316Z,714.38
2022-08-26T10:34:59.494Z,663.75
2022-08-26T10:35:59.527Z,680.63
2022-08-26T10:37:14.208Z,703.13
2022-08-26T10:37:59.591Z,703.13
2022-08-26T10:38:59.629Z,703.13
2022-08-26T10:39:59.680Z,725.63
2022-08-26T10:40:59.684Z,748.13
2022-08-26T10:41:59.717Z,753.75
2022-08-26T10:42:59.746Z,742.50
2022-08-26T10:43:59.777Z,708.75
2022-08-26T10:44:59.809Z,703.13
2022-08-26T10:45:59.879Z,753.75
2022-08-26T10:46:59.868Z,849.38
2022-08-26T10:47:59.904Z,1063.13
2022-08-26T10:49:00.180Z,967.50
2022-08-26T10:50:03.150Z,1108.13
2022-08-26T10:50:59.993Z,1327.50
2022-08-26T10:52:00.024Z,1395.00
2022-08-26T10:53:00.105Z,1395.00
2022-08-26T10:54:00.093Z,1400.63
2022-08-26T10:55:00.118Z,1113.75
2022-08-26T10:56:00.153Z,1125.00
2022-08-26T10:57:00.180Z,1023.75
2022-08-26T10:58:00.213Z,967.50
2022-08-26T10:59:00.243Z,933.75
2022-08-26T11:00:00.275Z,911.25
2022-08-26T11:01:00.375Z,888.75
2022-08-26T11:02:00.338Z,866.25
2022-08-26T11:03:00.373Z,866.25
2022-08-26T11:04:00.501Z,877.50
2022-08-26T11:05:00.756Z,888.75
2022-08-26T11:06:00.465Z,1018.13
2022-08-26T11:07:00.495Z,1040.63
2022-08-26T11:08:00.532Z,933.75
2022-08-26T11:09:00.558Z,877.50
2022-08-26T11:10:00.590Z,832.50
2022-08-26T11:11:00.623Z,793.13
2022-08-26T11:12:03.912Z,759.38
2022-08-26T11:13:00.689Z,736.88
2022-08-26T11:14:00.716Z,714.38
2022-08-26T11:15:00.748Z,703.13
2022-08-26T11:16:01.288Z,714.38
2022-08-26T11:17:00.876Z,770.63
2022-08-26T11:18:00.873Z,860.63
2022-08-26T11:19:00.872Z,939.38
2022-08-26T11:20:03.206Z,843.75
2022-08-26T11:21:00.937Z,855.00
2022-08-26T11:22:00.964Z,866.25
2022-08-26T11:23:00.998Z,855.00
2022-08-26T11:24:01.028Z,838.13
2022-08-26T11:25:01.069Z,838.13
2022-08-26T11:26:01.092Z,849.38
2022-08-26T11:27:01.122Z,843.75
2022-08-26T11:28:01.153Z,883.13
2022-08-26T11:29:01.188Z,956.25
2022-08-26T11:30:01.213Z,900.00
2022-08-26T11:31:01.246Z,973.13
2022-08-26T11:32:01.318Z,855.00
2022-08-26T11:33:01.308Z,860.63
2022-08-26T11:34:01.340Z,900.00
2022-08-26T11:35:01.370Z,720.00
2022-08-26T11:36:01.400Z,675.00
2022-08-26T11:37:01.434Z,607.50
2022-08-26T11:38:01.466Z,534.38
2022-08-26T11:39:02.715Z,483.75
2022-08-26T11:40:01.604Z,427.50
2022-08-26T11:41:01.556Z,399.38
2022-08-26T11:42:01.609Z,371.25
2022-08-26T11:43:01.617Z,337.50
2022-08-26T11:44:01.649Z,286.88
2022-08-26T11:45:04.814Z,253.13
2022-08-26T11:46:01.781Z,185.63
2022-08-26T11:47:01.740Z,168.75
2022-08-26T11:48:01.882Z,174.38
2022-08-26T11:49:01.801Z,202.50
2022-08-26T11:50:01.830Z,247.50
2022-08-26T11:51:01.861Z,270.00
2022-08-26T11:52:01.890Z,303.75
2022-08-26T11:53:02.344Z,354.38
2022-08-26T11:54:01.948Z,393.75
2022-08-26T11:55:01.981Z,489.38
2022-08-26T11:56:02.005Z,601.88
2022-08-26T11:57:04.834Z,607.50
2022-08-26T11:58:02.176Z,798.75
2022-08-26T11:59:02.091Z,787.50
2022-08-26T12:00:02.121Z,804.38
2022-08-26T12:01:03.481Z,843.75
2022-08-26T12:02:02.179Z,832.50
2022-08-26T12:03:02.239Z,871.88
2022-08-26T12:04:02.313Z,590.63
2022-08-26T12:05:02.258Z,461.25
2022-08-26T12:06:02.289Z,326.25
2022-08-26T12:07:02.324Z,309.38
2022-08-26T12:08:02.349Z,320.63
2022-08-26T12:09:02.371Z,348.75
2022-08-26T12:10:02.495Z,421.88
2022-08-26T12:11:02.429Z,483.75
2022-08-26T12:12:02.454Z,495.00
2022-08-26T12:13:02.520Z,495.00
2022-08-26T12:14:02.510Z,540.00
2022-08-26T12:15:02.537Z,810.00
2022-08-26T12:16:02.615Z,1018.13
2022-08-26T12:17:02.593Z,939.38
2022-08-26T12:18:02.624Z,601.88
2022-08-26T12:19:02.647Z,551.25
2022-08-26T12:20:02.674Z,556.88
2022-08-26T12:21:02.703Z,528.75
2022-08-26T12:22:02.728Z,478.13
2022-08-26T12:23:02.754Z,427.50
2022-08-26T12:24:02.781Z,405.00
2022-08-26T12:25:02.810Z,416.25
2022-08-26T12:26:02.836Z,427.50
2022-08-26T12:27:02.864Z,416.25
2022-08-26T12:28:02.891Z,393.75
2022-08-26T12:29:20.234Z,360.00
2022-08-26T12:30:02.946Z,315.00
2022-08-26T12:31:02.971Z,270.00
2022-08-26T12:32:03.109Z,247.50
2022-08-26T12:33:03.047Z,225.00
2022-08-26T12:34:03.075Z,219.38
2022-08-26T12:35:10.007Z,213.75
2022-08-26T12:36:03.123Z,208.13
2022-08-26T12:37:03.154Z,208.13
2022-08-26T12:38:03.198Z,219.38
2022-08-26T12:39:03.206Z,219.38
2022-08-26T12:40:03.387Z,208.13
2022-08-26T12:41:03.257Z,191.25
2022-08-26T12:42:03.284Z,174.38
2022-08-26T12:43:03.309Z,157.50
2022-08-26T12:44:03.335Z,146.25
2022-08-26T12:45:03.361Z,146.25
2022-08-26T12:46:03.436Z,135.00